Time;durP1;ratioP1;P1;durP2;ratioP2;P2;SDS_P1;SDS_P2;PMS_P1;PMS_P2;Temp;Humidity;BMP_temperature;BMP_pressure;BME280_temperature;BME280_humidity;BME280_pressure;Samples;Min_cycle;Max_cycle;Signal;HPM_P1;HPM_P2
2022/11/06 00:00:49;;;;;;;13.65;4.20;;;;;;;8.95;100.00;101481.75;5163386;28;20481;-71
2022/11/06 00:03:19;;;;;;;17.50;3.92;;;;;;;8.96;100.00;101484.28;5163429;28;20057;-71
2022/11/06 00:08:42;;;;;;;9.70;3.35;;;;;;;8.88;100.00;101476.09;5162571;28;20441;-72
2022/11/06 00:11:15;;;;;;;16.55;4.13;;;;;;;8.85;100.00;101471.03;5163123;28;20510;-72
2022/11/06 00:13:46;;;;;;;16.70;5.32;;;;;;;8.82;100.00;101465.97;5163107;28;20027;-71
2022/11/06 00:16:18;;;;;;;10.98;3.78;;;;;;;8.77;100.00;101474.41;5163507;28;20457;-72
2022/11/06 00:18:49;;;;;;;21.08;3.97;;;;;;;8.74;100.00;101469.34;5162546;28;20033;-73
2022/11/06 00:21:23;;;;;;;33.80;4.32;;;;;;;8.74;100.00;101460.47;5163078;28;20030;-73
2022/11/06 00:23:55;;;;;;;15.55;3.97;;;;;;;8.74;100.00;101464.00;5162999;28;20057;-73
2022/11/06 00:26:27;;;;;;;16.70;4.00;;;;;;;8.76;100.00;101455.81;5157020;28;20085;-73
2022/11/06 00:28:58;;;;;;;11.98;3.15;;;;;;;8.83;100.00;101459.63;5160484;28;20440;-73
2022/11/06 00:31:35;;;;;;;16.50;3.72;;;;;;;8.89;100.00;101453.72;5157937;28;20027;-74
2022/11/06 00:34:06;;;;;;;16.02;4.05;;;;;;;8.96;100.00;101457.53;5162035;28;20429;-73
2022/11/06 00:36:37;;;;;;;13.50;4.18;;;;;;;9.03;100.00;101453.28;5162862;28;20034;-72
2022/11/06 00:39:09;;;;;;;11.75;3.28;;;;;;;9.12;100.00;101450.75;5162849;28;20548;-72
2022/11/06 00:41:40;;;;;;;13.20;3.30;;;;;;;9.16;100.00;101447.66;5162826;28;20022;-72
2022/11/06 00:44:10;;;;;;;10.95;3.25;;;;;;;9.23;100.00;101443.41;5162868;28;20061;-72
2022/11/06 00:46:41;;;;;;;8.63;2.30;;;;;;;9.30;100.00;101457.09;5164951;28;20050;-72
2022/11/06 00:49:11;;;;;;;15.15;3.00;;;;;;;9.35;100.00;101452.16;5166782;28;20478;-72
2022/11/06 00:51:42;;;;;;;11.23;2.85;;;;;;;9.40;100.00;101455.25;5165976;28;20459;-72
2022/11/06 00:54:13;;;;;;;9.85;3.58;;;;;;;9.47;100.00;101464.38;5166839;28;20026;-73
2022/11/06 00:56:44;;;;;;;9.60;2.88;;;;;;;9.51;100.00;101457.75;5166758;28;20085;-72
2022/11/06 00:59:14;;;;;;;10.43;2.75;;;;;;;9.58;100.00;101458.00;5167026;28;20030;-72
2022/11/06 01:01:45;;;;;;;8.65;2.67;;;;;;;9.63;100.00;101462.94;5167200;28;20085;-72
2022/11/06 01:04:18;;;;;;;10.20;2.55;;;;;;;9.68;100.00;101447.25;5166965;28;20425;-72
2022/11/06 01:06:55;;;;;;;13.27;3.33;;;;;;;9.69;100.00;101440.91;5166572;28;20441;-70
2022/11/06 01:09:27;;;;;;;8.13;2.40;;;;;;;9.71;100.00;101439.78;5167466;28;20057;-71
2022/11/06 01:11:58;;;;;;;15.77;2.70;;;;;;;9.72;100.00;101435.25;5167965;28;20031;-71
2022/11/06 01:14:29;;;;;;;17.23;2.60;;;;;;;9.78;100.00;101427.47;5166854;28;20026;-72
2022/11/06 01:16:59;;;;;;;9.65;2.55;;;;;;;9.81;100.00;101442.44;5166648;28;20023;-73
2022/11/06 01:19:30;;;;;;;10.90;2.60;;;;;;;9.86;100.00;101445.50;5166154;28;20531;-71
2022/11/06 01:22:00;;;;;;;10.65;2.70;;;;;;;9.91;100.00;101453.97;5166375;28;20031;-71
2022/11/06 01:24:31;;;;;;;12.68;2.80;;;;;;;9.94;100.00;101453.69;5166470;28;20068;-71
2022/11/06 01:27:01;;;;;;;15.70;2.83;;;;;;;9.99;100.00;101453.19;5157649;28;20033;-71
2022/11/06 01:29:33;;;;;;;9.45;3.05;;;;;;;9.99;100.00;101446.03;5166254;28;20485;-71
2022/11/06 01:32:04;;;;;;;10.82;2.20;;;;;;;10.00;100.00;101441.50;5160349;28;20358;-72
2022/11/06 01:34:34;;;;;;;11.23;2.35;;;;;;;10.03;100.00;101434.00;5166670;28;20036;-73
2022/11/06 01:37:05;;;;;;;8.43;2.65;;;;;;;10.07;100.00;101423.84;5165799;28;20445;-72
2022/11/06 01:39:35;;;;;;;12.13;2.92;;;;;;;10.10;100.00;101427.06;5166208;28;20049;-72
2022/11/06 01:42:06;;;;;;;16.58;3.05;;;;;;;10.09;100.00;101428.06;5166065;28;20032;-72
2022/11/06 01:44:42;;;;;;;8.13;2.88;;;;;;;10.05;100.00;101418.63;5165633;28;20054;-71
2022/11/06 01:47:30;;;;;;;10.88;2.53;;;;;;;10.08;100.00;101421.00;5165671;28;20387;-73
2022/11/06 01:50:06;;;;;;;18.23;4.38;;;;;;;10.07;100.00;101413.94;5165973;28;20496;-72
2022/11/06 01:52:37;;;;;;;10.80;2.80;;;;;;;10.08;100.00;101415.63;5165885;28;20475;-73
2022/11/06 01:55:14;;;;;;;14.85;2.88;;;;;;;10.10;100.00;101419.03;5166024;28;20030;-73
2022/11/06 01:57:46;;;;;;;9.73;2.10;;;;;;;10.07;100.00;101416.63;5164311;28;20106;-73
2022/11/06 02:00:18;;;;;;;11.70;2.50;;;;;;;10.06;100.00;101414.09;5166079;28;20034;-73
2022/11/06 02:02:49;;;;;;;10.27;2.60;;;;;;;10.01;100.00;101413.72;5166224;28;20023;-73
2022/11/06 02:05:20;;;;;;;17.95;3.40;;;;;;;9.99;100.00;101400.47;5166049;28;20030;-72
2022/11/06 02:07:52;;;;;;;15.98;2.75;;;;;;;9.96;100.00;101390.03;5165491;28;20019;-72
2022/11/06 02:10:22;;;;;;;14.75;2.92;;;;;;;9.92;100.00;101391.31;5166032;28;20543;-72
2022/11/06 02:13:00;;;;;;;16.77;3.45;;;;;;;9.85;100.00;101388.41;5166046;28;20022;-72
2022/11/06 02:15:30;;;;;;;12.65;2.97;;;;;;;9.82;100.00;101374.44;5165450;28;20065;-72
2022/11/06 02:18:21;;;;;;;8.52;2.78;;;;;;;9.79;100.00;101385.47;5165513;28;20502;-72
2022/11/06 02:21:35;;;;;;;16.65;2.42;;;;;;;9.75;100.00;101392.13;5166059;28;20046;-71
2022/11/06 02:24:24;;;;;;;10.18;2.65;;;;;;;9.76;100.00;101380.41;5165456;28;20057;-72
2022/11/06 02:27:14;;;;;;;8.70;2.92;;;;;;;9.75;100.00;101382.25;5169012;28;20030;-71
2022/11/06 02:30:10;;;;;;;8.30;2.75;;;;;;;9.77;100.00;101382.91;5165701;28;20064;-71
2022/11/06 02:32:46;;;;;;;14.68;3.10;;;;;;;9.75;100.00;101390.28;5158201;28;20026;-71
2022/11/06 02:35:41;;;;;;;10.55;2.80;;;;;;;9.80;100.00;101404.06;5165612;28;20080;-71
2022/11/06 02:38:23;;;;;;;9.93;2.80;;;;;;;9.85;100.00;101401.78;5163966;28;20026;-72
2022/11/06 02:41:03;;;;;;;7.93;2.38;;;;;;;9.92;100.00;101398.50;5165729;28;20422;-72
2022/11/06 02:43:39;;;;;;;16.85;3.45;;;;;;;9.96;100.00;101387.34;5165460;28;20033;-73
2022/11/06 02:46:22;;;;;;;13.85;2.65;;;;;;;9.98;100.00;101380.00;5165287;28;20133;-73
2022/11/06 02:49:01;;;;;;;12.23;2.63;;;;;;;9.96;100.00;101365.91;5164615;28;20026;-73
2022/11/06 02:51:37;;;;;;;7.82;2.55;;;;;;;9.94;100.00;101370.59;5165178;28;20508;-72
2022/11/06 02:54:10;;;;;;;16.58;2.67;;;;;;;9.86;100.00;101362.44;5165479;28;20152;-72
2022/11/06 02:56:44;;;;;;;10.15;2.60;;;;;;;9.81;100.00;101362.03;5165066;28;20080;-73
2022/11/06 02:59:23;;;;;;;17.40;2.60;;;;;;;9.76;100.00;101357.13;5164556;28;20026;-73
2022/11/06 03:02:01;;;;;;;5.57;2.42;;;;;;;9.78;100.00;101356.97;5165227;28;20041;-73
2022/11/06 03:04:52;;;;;;;10.13;2.70;;;;;;;9.74;100.00;101351.09;5165078;28;20539;-72
2022/11/06 03:07:38;;;;;;;15.00;2.63;;;;;;;9.69;100.00;101342.66;5164208;28;20088;-73
2022/11/06 03:10:10;;;;;;;14.63;2.80;;;;;;;9.62;100.00;101351.41;5164749;28;20385;-73
2022/11/06 03:13:20;;;;;;;12.30;2.38;;;;;;;9.59;100.00;101347.22;5164964;28;20548;-72
2022/11/06 03:16:04;;;;;;;13.10;3.20;;;;;;;9.57;100.00;101347.34;5164459;28;20114;-73
2022/11/06 03:18:54;;;;;;;12.57;2.70;;;;;;;9.61;100.00;101345.22;5164224;28;20030;-71
2022/11/06 03:21:35;;;;;;;10.48;3.10;;;;;;;9.64;100.00;101344.06;5153919;28;20467;-72
2022/11/06 03:24:27;;;;;;;11.98;2.72;;;;;;;9.70;100.00;101332.78;5164578;28;20033;-71
2022/11/06 03:27:00;;;;;;;11.93;3.30;;;;;;;9.77;100.00;101333.84;5155855;28;20592;-71
2022/11/06 03:29:35;;;;;;;16.17;4.40;;;;;;;9.84;100.00;101318.88;5164465;28;20033;-71
2022/11/06 03:32:14;;;;;;;19.33;3.97;;;;;;;9.88;100.00;101319.41;5158708;28;20042;-71
2022/11/06 03:34:52;;;;;;;15.02;3.58;;;;;;;9.90;100.00;101317.44;5164443;28;20045;-72
2022/11/06 03:37:31;;;;;;;7.20;2.80;;;;;;;9.95;100.00;101317.81;5163000;28;20073;-71
2022/11/06 03:40:08;;;;;;;10.40;2.75;;;;;;;9.95;100.00;101315.13;5164245;28;20029;-71
2022/11/06 03:42:40;;;;;;;13.75;3.38;;;;;;;9.89;100.00;101313.03;5164417;28;20031;-71
2022/11/06 03:45:17;;;;;;;9.25;3.13;;;;;;;9.84;100.00;101308.16;5163446;28;20018;-71
2022/11/06 03:48:06;;;;;;;10.50;2.60;;;;;;;9.80;100.00;101296.03;5163709;28;20400;-71
2022/11/06 03:50:46;;;;;;;16.20;2.78;;;;;;;9.75;100.00;101287.63;5153778;28;20030;-72
2022/11/06 03:53:24;;;;;;;9.60;2.83;;;;;;;9.67;100.00;101284.84;5163847;28;20370;-72
2022/11/06 03:56:06;;;;;;;8.98;2.58;;;;;;;9.64;100.00;101275.28;5163991;28;20026;-72
2022/11/06 03:58:43;;;;;;;10.25;2.70;;;;;;;9.63;100.00;101278.09;5163579;28;20027;-72
2022/11/06 04:01:15;;;;;;;8.60;2.95;;;;;;;9.56;100.00;101278.69;5163866;28;20022;-72
2022/11/06 04:03:58;;;;;;;9.63;2.85;;;;;;;9.59;100.00;101274.88;5163641;28;20033;-72
2022/11/06 04:06:36;;;;;;;12.85;3.00;;;;;;;9.60;100.00;101274.72;5163725;28;20077;-72
2022/11/06 04:14:55;;;;;;;10.85;2.63;;;;;;;9.51;100.00;101275.63;5152326;28;20033;-70
2022/11/06 04:17:27;;;;;;;6.93;3.13;;;;;;;9.53;100.00;101265.56;5163128;28;20090;-71
2022/11/06 04:20:05;;;;;;;7.72;2.75;;;;;;;9.53;100.00;101267.41;5162216;28;20050;-71
2022/11/06 04:22:49;;;;;;;11.07;3.15;;;;;;;9.53;100.00;101254.88;5162907;28;20560;-70
2022/11/06 04:29:04;;;;;;;6.57;2.80;;;;;;;9.46;100.00;101251.13;5163023;28;20034;-70
2022/11/06 04:31:57;;;;;;;14.10;2.63;;;;;;;9.41;100.00;101248.03;5155476;28;20527;-71
2022/11/06 04:34:43;;;;;;;12.30;3.38;;;;;;;9.38;100.00;101250.16;5153900;28;20049;-71
2022/11/06 04:37:27;;;;;;;11.15;2.30;;;;;;;9.40;100.00;101245.53;5162770;28;20026;-72
2022/11/06 04:40:15;;;;;;;12.27;3.20;;;;;;;9.40;100.00;101248.19;5163323;28;20168;-71
2022/11/06 04:42:56;;;;;;;8.70;3.03;;;;;;;9.39;100.00;101249.16;5163494;28;20022;-71
2022/11/06 04:45:35;;;;;;;8.77;3.22;;;;;;;9.40;100.00;101254.41;5162798;28;20018;-72
2022/11/06 04:48:08;;;;;;;6.05;2.50;;;;;;;9.40;100.00;101250.88;5162550;28;20038;-72
2022/11/06 04:50:44;;;;;;;10.00;2.40;;;;;;;9.38;100.00;101250.16;5163273;28;20034;-72
2022/11/06 04:53:17;;;;;;;18.17;2.58;;;;;;;9.34;100.00;101242.44;5163195;28;20394;-72
2022/11/06 04:55:52;;;;;;;14.75;2.95;;;;;;;9.37;100.00;101235.09;5163162;28;20110;-72
2022/11/06 04:58:23;;;;;;;;;;;;;;;9.36;100.00;101236.09;5163179;28;20109;-72
2022/11/06 05:00:53;;;;;;;6.30;2.33;;;;;;;9.33;100.00;101239.91;5163190;28;20453;-72
2022/11/06 05:03:24;;;;;;;8.45;2.35;;;;;;;9.26;100.00;101236.97;5163088;28;20018;-71
2022/11/06 05:05:54;;;;;;;15.20;3.03;;;;;;;9.27;100.00;101238.66;5163076;28;20026;-72
2022/11/06 05:08:25;;;;;;;8.90;2.83;;;;;;;9.24;100.00;101227.44;5162468;28;20151;-73
2022/11/06 05:10:55;;;;;;;13.05;2.72;;;;;;;9.26;100.00;101233.47;5163176;28;20027;-73
2022/11/06 05:13:26;;;;;;;10.02;2.72;;;;;;;9.28;100.00;101226.94;5163724;28;20026;-73
2022/11/06 05:15:57;;;;;;;12.57;2.97;;;;;;;9.31;100.00;101228.50;5163389;28;20018;-72
2022/11/06 05:18:28;;;;;;;9.68;3.03;;;;;;;9.31;100.00;101220.47;5161888;28;20458;-72
2022/11/06 05:23:51;;;;;;;15.65;3.70;;;;;;;9.28;100.00;101221.59;5163607;28;20018;-72
2022/11/06 05:26:21;;;;;;;7.65;2.90;;;;;;;9.29;100.00;101220.63;5158669;28;20027;-72
2022/11/06 05:28:52;;;;;;;10.35;2.65;;;;;;;9.28;100.00;101231.47;5160198;28;20059;-72
2022/11/06 05:31:23;;;;;;;13.38;2.20;;;;;;;9.28;100.00;101210.88;5161209;28;20382;-72
2022/11/06 05:33:53;;;;;;;19.55;3.22;;;;;;;9.31;100.00;101220.47;5186643;28;20029;-73
2022/11/06 05:36:24;;;;;;;12.65;3.30;;;;;;;9.35;100.00;101219.19;5169948;28;20046;-72
2022/11/06 05:38:54;;;;;;;11.55;2.90;;;;;;;9.37;100.00;101206.47;5166147;28;20054;-72
2022/11/06 05:41:25;;;;;;;10.98;2.75;;;;;;;9.40;100.00;101202.69;5166594;28;20022;-72
2022/11/06 05:43:56;;;;;;;10.05;2.97;;;;;;;9.43;100.00;101203.19;5166302;28;20028;-72
2022/11/06 05:46:26;;;;;;;17.75;4.43;;;;;;;9.48;100.00;101192.88;5166027;28;20053;-73
2022/11/06 05:48:57;;;;;;;8.18;3.00;;;;;;;9.56;100.00;101203.69;5166129;28;20113;-72
2022/11/06 05:51:27;;;;;;;7.57;2.65;;;;;;;9.59;100.00;101194.53;5166267;28;20033;-72
2022/11/06 05:53:58;;;;;;;14.80;3.05;;;;;;;9.63;100.00;101181.66;5166458;28;20037;-72
2022/11/06 05:56:28;;;;;;;9.38;2.78;;;;;;;9.67;100.00;101175.00;5165825;28;20033;-71
2022/11/06 05:58:59;;;;;;;12.82;2.75;;;;;;;9.70;100.00;101164.00;5165873;28;20026;-71
2022/11/06 06:01:29;;;;;;;8.73;2.28;;;;;;;9.83;100.00;101164.44;5166054;28;20029;-72
2022/11/06 06:04:00;;;;;;;12.23;2.75;;;;;;;9.84;100.00;101158.09;5166338;28;20417;-71
2022/11/06 06:06:31;;;;;;;9.35;2.38;;;;;;;9.88;100.00;101167.50;5166441;28;20026;-72
2022/11/06 06:09:02;;;;;;;8.77;2.53;;;;;;;9.92;100.00;101171.53;5165301;28;20027;-71
2022/11/06 06:11:33;;;;;;;15.25;3.45;;;;;;;9.91;100.00;101167.19;5165959;28;20035;-71
2022/11/06 06:14:03;;;;;;;13.57;3.10;;;;;;;9.96;100.00;101164.88;5166160;28;20354;-71
2022/11/06 06:16:34;;;;;;;18.15;5.13;;;;;;;10.01;100.00;101170.63;5165754;28;20446;-72
2022/11/06 06:19:04;;;;;;;7.00;2.33;;;;;;;10.05;100.00;101180.06;5165571;28;20489;-70
2022/11/06 06:21:35;;;;;;;13.43;2.55;;;;;;;10.06;100.00;101170.16;5165353;28;20113;-71
2022/11/06 06:24:06;;;;;;;7.80;2.53;;;;;;;10.08;100.00;101178.88;5165806;28;20405;-70
2022/11/06 06:26:37;;;;;;;11.77;2.65;;;;;;;10.11;100.00;101179.44;5167384;28;20034;-70
2022/11/06 06:29:07;;;;;;;8.00;3.17;;;;;;;10.16;100.00;101173.59;5165176;28;20022;-70
2022/11/06 06:31:38;;;;;;;10.90;2.42;;;;;;;10.17;100.00;101172.59;5160038;28;20038;-70
2022/11/06 06:34:08;;;;;;;16.70;3.17;;;;;;;10.20;100.00;101171.47;5165475;28;20026;-70
2022/11/06 06:36:39;;;;;;;7.30;2.65;;;;;;;10.19;100.00;101165.25;5165326;28;20026;-70
2022/11/06 06:39:09;;;;;;;13.13;3.10;;;;;;;10.22;100.00;101166.75;5164120;28;20422;-70
2022/11/06 06:41:40;;;;;;;9.15;2.05;;;;;;;10.20;100.00;101160.72;5165449;28;20109;-71
2022/11/06 06:44:10;;;;;;;6.25;2.15;;;;;;;10.25;100.00;101158.47;5164744;28;20033;-71
2022/11/06 06:46:41;;;;;;;8.85;2.33;;;;;;;10.27;100.00;101151.09;5164590;28;20030;-70
2022/11/06 06:49:11;;;;;;;9.15;2.30;;;;;;;10.29;100.00;101155.31;5165104;28;20026;-70
2022/11/06 06:51:42;;;;;;;8.27;2.05;;;;;;;10.33;100.00;101162.00;5165029;28;20031;-70
2022/11/06 06:54:12;;;;;;;11.07;2.28;;;;;;;10.35;100.00;101167.25;5165394;28;20129;-70
2022/11/06 06:56:43;;;;;;;6.32;2.08;;;;;;;10.37;100.00;101165.22;5164657;28;20106;-70
2022/11/06 06:59:13;;;;;;;13.48;2.42;;;;;;;10.39;100.00;101173.94;5164820;28;20022;-70
2022/11/06 07:01:44;;;;;;;16.52;2.72;;;;;;;10.40;100.00;101174.81;5165111;28;20049;-70
2022/11/06 07:04:14;;;;;;;6.55;2.30;;;;;;;10.43;100.00;101169.97;5165080;28;20081;-70
2022/11/06 07:06:45;;;;;;;9.90;2.47;;;;;;;10.46;100.00;101172.34;5164669;28;20030;-70
2022/11/06 07:09:15;;;;;;;6.47;2.70;;;;;;;10.49;100.00;101155.94;5164275;28;20022;-71
2022/11/06 07:11:46;;;;;;;7.55;2.40;;;;;;;10.53;100.00;101153.75;5164801;28;20026;-71
2022/11/06 07:14:16;;;;;;;11.85;2.00;;;;;;;10.53;100.00;101149.25;5164787;28;20025;-70
2022/11/06 07:16:47;;;;;;;11.82;2.40;;;;;;;10.61;100.00;101151.13;5164637;28;20026;-71
2022/11/06 07:19:17;;;;;;;7.80;2.28;;;;;;;10.60;100.00;101149.47;5164690;28;20026;-70
2022/11/06 07:21:51;;;;;;;10.02;2.10;;;;;;;10.63;100.00;101151.81;5164432;28;20049;-71
2022/11/06 07:24:22;;;;;;;7.83;2.40;;;;;;;10.68;100.00;101149.50;5166836;28;20023;-70
2022/11/06 07:26:52;;;;;;;8.63;2.15;;;;;;;10.70;100.00;101147.50;5151960;28;20023;-70
2022/11/06 07:29:23;;;;;;;12.13;2.20;;;;;;;10.72;100.00;101147.34;5164327;28;20078;-70
2022/11/06 07:31:53;;;;;;;10.35;2.00;;;;;;;10.74;100.00;101142.63;5159092;28;20019;-71
2022/11/06 07:34:24;;;;;;;13.43;2.20;;;;;;;10.80;100.00;101144.72;5164106;28;20093;-70
2022/11/06 07:36:54;;;;;;;11.63;2.38;;;;;;;10.83;100.00;101147.88;5163712;28;20026;-70
2022/11/06 07:39:25;;;;;;;10.82;2.00;;;;;;;10.89;100.00;101146.41;5164696;28;20023;-71
2022/11/06 07:41:55;;;;;;;6.75;1.70;;;;;;;10.92;100.00;101135.34;5164299;28;20022;-70
2022/11/06 07:44:26;;;;;;;7.10;2.38;;;;;;;10.93;100.00;101138.88;5179509;28;20030;-71
2022/11/06 07:46:56;;;;;;;7.75;2.20;;;;;;;10.98;100.00;101141.91;5163226;28;20066;-71
2022/11/06 07:49:27;;;;;;;7.30;2.33;;;;;;;10.98;100.00;101137.38;5179292;28;20034;-71
2022/11/06 07:51:57;;;;;;;12.10;3.95;;;;;;;11.00;100.00;101139.94;5164452;28;20026;-71
2022/11/06 07:54:28;;;;;;;10.65;2.22;;;;;;;11.02;100.00;101138.75;5164011;28;20363;-71
2022/11/06 07:56:58;;;;;;;6.05;1.95;;;;;;;11.10;100.00;101130.72;5162773;28;20084;-71
2022/11/06 07:59:29;;;;;;;5.18;2.00;;;;;;;11.07;100.00;101120.31;5163474;28;20029;-71
2022/11/06 08:01:59;;;;;;;5.50;1.70;;;;;;;11.12;100.00;101117.97;5164132;28;20398;-72
2022/11/06 08:04:30;;;;;;;7.18;1.88;;;;;;;11.17;100.00;101112.13;5163871;28;20437;-71
2022/11/06 08:07:00;;;;;;;7.63;1.85;;;;;;;11.23;100.00;101108.78;5163419;28;20034;-71
2022/11/06 08:09:31;;;;;;;6.85;2.00;;;;;;;11.29;100.00;101105.41;5163516;28;20441;-72
2022/11/06 08:12:01;;;;;;;10.77;2.40;;;;;;;11.30;100.00;101101.75;5163414;28;20030;-71
2022/11/06 08:14:32;;;;;;;8.13;1.95;;;;;;;11.34;100.00;101102.25;5163614;28;20089;-72
2022/11/06 08:17:02;;;;;;;3.85;1.67;;;;;;;11.16;100.00;101105.06;5163256;28;20389;-72
2022/11/06 08:19:33;;;;;;;10.32;1.83;;;;;;;11.13;100.00;101098.16;5163464;28;20026;-72
2022/11/06 08:22:03;;;;;;;6.25;1.88;;;;;;;11.24;100.00;101093.50;5163349;28;20029;-72
2022/11/06 08:24:34;;;;;;;3.20;1.30;;;;;;;11.34;100.00;101096.88;5163742;28;20033;-72
2022/11/06 08:27:05;;;;;;;7.85;2.05;;;;;;;11.32;100.00;101090.84;5154344;28;20030;-72
2022/11/06 08:29:35;;;;;;;6.50;2.35;;;;;;;11.29;100.00;101091.16;5163657;28;20037;-71
2022/11/06 08:32:06;;;;;;;8.68;1.50;;;;;;;11.32;100.00;101085.47;5157727;28;20026;-71
2022/11/06 08:34:36;;;;;;;8.77;1.90;;;;;;;11.35;100.00;101095.88;5163229;28;20117;-72
2022/11/06 08:37:08;;;;;;;9.05;2.38;;;;;;;11.33;100.00;101089.81;5162861;28;20018;-72
2022/11/06 08:39:39;;;;;;;7.38;2.25;;;;;;;11.31;100.00;101092.69;5178856;28;20033;-71
2022/11/06 08:42:09;;;;;;;7.03;2.33;;;;;;;11.39;100.00;101081.09;5163210;28;20494;-72
2022/11/06 08:44:41;;;;;;;4.82;1.98;;;;;;;11.42;100.00;101075.41;5163584;28;20037;-72
2022/11/06 08:47:11;;;;;;;6.88;1.73;;;;;;;11.61;100.00;101076.94;5162490;28;20030;-72
2022/11/06 08:49:42;;;;;;;7.63;1.58;;;;;;;11.69;100.00;101068.84;5163282;28;20023;-72
2022/11/06 08:52:12;;;;;;;6.10;1.50;;;;;;;11.83;100.00;101070.06;5163396;28;20022;-72
2022/11/06 08:54:43;;;;;;;6.40;2.05;;;;;;;11.79;100.00;101066.00;5163317;28;20088;-71
2022/11/06 08:57:13;;;;;;;9.55;3.10;;;;;;;11.72;100.00;101055.09;5162872;28;20473;-72
2022/11/06 08:59:44;;;;;;;5.43;1.90;;;;;;;11.80;100.00;101054.28;5162748;28;20034;-72
2022/11/06 09:02:14;;;;;;;12.43;2.75;;;;;;;11.90;100.00;101052.28;5163346;28;20290;-72
2022/11/06 09:04:45;;;;;;;10.20;2.17;;;;;;;11.91;100.00;101053.94;5163261;28;20324;-72
2022/11/06 09:07:15;;;;;;;9.68;1.75;;;;;;;11.90;100.00;101045.03;5164287;28;20112;-72
2022/11/06 09:09:46;;;;;;;8.68;2.33;;;;;;;11.99;100.00;101045.84;5167262;28;20039;-72
2022/11/06 09:12:16;;;;;;;8.48;2.22;;;;;;;12.01;100.00;101041.16;5166552;28;20022;-72
2022/11/06 09:14:47;;;;;;;10.15;2.83;;;;;;;12.06;100.00;101046.88;5167427;28;20015;-72
2022/11/06 09:17:22;;;;;;;6.80;1.88;;;;;;;12.12;100.00;101040.78;5166327;28;20033;-72
2022/11/06 09:19:52;;;;;;;9.55;2.72;;;;;;;11.93;100.00;101035.78;5167676;28;20453;-72
2022/11/06 09:22:23;;;;;;;10.02;2.15;;;;;;;11.84;100.00;101034.13;5166885;28;20113;-72
2022/11/06 09:24:53;;;;;;;11.85;2.22;;;;;;;11.61;100.00;101026.72;5169772;28;20034;-72
2022/11/06 09:27:24;;;;;;;8.00;2.20;;;;;;;11.70;100.00;101027.56;5166353;28;20478;-72
2022/11/06 09:29:54;;;;;;;7.95;2.00;;;;;;;11.57;100.00;101035.28;5166775;28;20030;-72
2022/11/06 09:32:25;;;;;;;9.95;1.95;;;;;;;11.65;100.00;101028.06;5160775;28;20101;-72
2022/11/06 09:34:55;;;;;;;8.60;2.10;;;;;;;11.66;100.00;101024.38;5166759;28;20022;-72
2022/11/06 09:37:26;;;;;;;8.93;2.30;;;;;;;11.54;100.00;101025.69;5166162;28;20126;-72
2022/11/06 09:39:56;;;;;;;13.40;2.17;;;;;;;11.45;100.00;101015.97;5166910;28;20033;-72
2022/11/06 09:42:46;;;;;;;11.00;2.53;;;;;;;11.45;100.00;101017.84;5166575;28;20109;-72
2022/11/06 09:45:21;;;;;;;12.07;2.42;;;;;;;11.49;100.00;101025.34;5181824;28;20026;-72
2022/11/06 09:48:04;;;;;;;11.35;2.28;;;;;;;11.46;100.00;101006.91;5165606;28;20038;-72
2022/11/06 09:50:40;;;;;;;6.25;2.15;;;;;;;11.47;100.00;101008.59;5166801;28;20022;-72
2022/11/06 09:53:47;;;;;;;7.97;2.30;;;;;;;11.59;100.00;101001.84;5166310;28;20033;-72
2022/11/06 09:56:20;;;;;;;;;;;;;;;11.64;100.00;100994.13;5165265;28;20050;-72
2022/11/06 09:58:53;;;;;;;7.00;1.60;;;;;;;11.61;100.00;100988.25;5166247;28;20373;-72
2022/11/06 10:01:31;;;;;;;7.57;2.17;;;;;;;11.56;100.00;100986.09;5166043;28;20026;-72
2022/11/06 10:04:03;;;;;;;9.90;1.92;;;;;;;11.68;100.00;100983.88;5166567;28;20054;-72
2022/11/06 10:06:34;;;;;;;24.17;2.88;;;;;;;11.73;100.00;100989.59;5165589;28;20022;-72
2022/11/06 10:09:06;;;;;;;9.65;3.50;;;;;;;11.60;100.00;100971.31;5165859;28;20481;-72
2022/11/06 10:12:15;;;;;;;8.57;2.22;;;;;;;11.66;100.00;100975.16;5165968;28;20028;-72
2022/11/06 10:15:06;;;;;;;6.07;2.00;;;;;;;11.62;100.00;100963.06;5165646;28;20113;-72
2022/11/06 10:17:53;;;;;;;12.32;2.05;;;;;;;11.68;100.00;100967.75;5165342;28;20114;-71
2022/11/06 10:20:44;;;;;;;12.75;2.72;;;;;;;11.78;100.00;100972.94;5165348;28;20026;-71
2022/11/06 10:23:38;;;;;;;6.55;2.00;;;;;;;11.80;100.00;100960.19;5157757;28;20161;-71
2022/11/06 10:26:14;;;;;;;12.38;2.22;;;;;;;11.78;100.00;100967.56;5162490;28;20025;-71
2022/11/06 10:29:18;;;;;;;8.07;2.10;;;;;;;11.74;100.00;100961.69;5160788;28;20022;-71
2022/11/06 10:32:19;;;;;;;8.90;2.08;;;;;;;11.83;100.00;100951.78;5159598;28;20529;-71
2022/11/06 10:35:01;;;;;;;6.70;2.00;;;;;;;11.87;100.00;100951.28;5164454;28;20041;-71
2022/11/06 10:37:39;;;;;;;9.05;1.88;;;;;;;11.96;100.00;100945.91;5153146;28;20082;-71
2022/11/06 10:40:18;;;;;;;5.13;1.92;;;;;;;11.91;100.00;100952.63;5165313;28;20069;-71
2022/11/06 10:43:04;;;;;;;10.63;2.20;;;;;;;11.89;100.00;100949.25;5165612;28;20405;-72
2022/11/06 10:45:39;;;;;;;9.45;2.15;;;;;;;11.88;100.00;100939.50;5165306;28;20481;-71
2022/11/06 10:48:24;;;;;;;11.20;2.38;;;;;;;11.90;100.00;100944.75;5162929;28;20045;-71
2022/11/06 10:51:15;;;;;;;10.48;1.70;;;;;;;11.87;100.00;100942.38;5165165;28;20061;-71
2022/11/06 10:54:03;;;;;;;10.82;2.05;;;;;;;11.79;100.00;100931.63;5165188;28;20446;-71
2022/11/06 10:56:52;;;;;;;6.80;1.88;;;;;;;11.84;100.00;100918.53;5164580;28;20037;-71
2022/11/06 10:59:23;;;;;;;8.27;1.48;;;;;;;11.75;100.00;100919.56;5164956;28;20486;-71
2022/11/06 11:01:54;;;;;;;15.40;3.10;;;;;;;11.65;100.00;100923.25;5180316;28;20037;-71
2022/11/06 11:04:25;;;;;;;10.65;2.30;;;;;;;11.53;100.00;100919.25;5164125;28;20025;-71
2022/11/06 11:06:55;;;;;;;4.93;2.45;;;;;;;11.59;100.00;100915.03;5163064;28;20077;-71
2022/11/06 11:09:31;;;;;;;9.15;2.17;;;;;;;11.71;100.00;100912.84;5145706;28;20022;-72
2022/11/06 11:12:02;;;;;;;7.72;2.08;;;;;;;11.80;100.00;100911.81;5147479;28;20034;-72
2022/11/06 11:14:33;;;;;;;11.57;2.72;;;;;;;11.75;100.00;100898.06;5163099;28;20030;-72
2022/11/06 11:17:06;;;;;;;5.78;1.85;;;;;;;11.77;100.00;100893.31;5160877;28;20026;-72
2022/11/06 11:19:40;;;;;;;8.77;2.30;;;;;;;11.77;100.00;100886.09;5163332;28;20536;-72
2022/11/06 11:22:20;;;;;;;6.85;1.90;;;;;;;11.85;100.00;100886.13;5162032;28;20067;-72
2022/11/06 11:25:07;;;;;;;5.78;2.03;;;;;;;12.05;100.00;100880.28;5165847;28;20037;-72
2022/11/06 11:27:47;;;;;;;12.10;2.53;;;;;;;11.96;100.00;100889.44;5149590;28;20490;-72
2022/11/06 11:30:22;;;;;;;7.47;2.15;;;;;;;12.24;100.00;100873.66;5163099;28;20118;-72
2022/11/06 11:32:53;;;;;;;7.97;1.83;;;;;;;12.11;100.00;100864.31;5157526;28;20031;-72
2022/11/06 11:35:29;;;;;;;5.85;1.92;;;;;;;12.15;100.00;100852.22;5163061;28;20015;-72
2022/11/06 11:38:11;;;;;;;9.73;2.40;;;;;;;12.15;100.00;100841.44;5162015;28;20023;-72
2022/11/06 11:40:42;;;;;;;10.95;1.77;;;;;;;12.12;100.00;100841.78;5163117;28;20026;-72
2022/11/06 11:43:23;;;;;;;6.63;1.88;;;;;;;12.03;100.00;100833.94;5162892;28;20027;-72
2022/11/06 11:46:09;;;;;;;9.85;1.77;;;;;;;12.10;100.00;100832.25;5163019;28;20121;-72
2022/11/06 11:48:50;;;;;;;5.30;1.80;;;;;;;12.11;100.00;100829.38;5160874;28;20045;-72
2022/11/06 11:51:27;;;;;;;8.82;1.80;;;;;;;12.03;100.00;100834.78;5162667;28;20030;-72
2022/11/06 11:54:12;;;;;;;6.97;1.92;;;;;;;12.06;100.00;100829.06;5163424;28;20029;-72
2022/11/06 11:56:51;;;;;;;;;;;;;;;11.95;100.00;100824.06;5162853;28;20109;-72
2022/11/06 11:59:55;;;;;;;7.07;1.77;;;;;;;12.03;100.00;100828.56;5150949;28;20281;-72
2022/11/06 12:02:30;;;;;;;16.58;1.90;;;;;;;11.82;100.00;100819.25;5146922;28;20171;-72
2022/11/06 12:05:31;;;;;;;6.07;1.83;;;;;;;11.83;100.00;100804.78;5153637;28;20030;-72
2022/11/06 12:08:03;;;;;;;6.95;1.30;;;;;;;11.80;100.00;100802.44;5144788;28;20286;-72